createdAt,value
2023-01-18T00:01:32.654Z,3.15
2023-01-18T00:04:00.920Z,3.55
2023-01-18T00:06:28.472Z,3.25
2023-01-18T00:08:57.447Z,3.25
2023-01-18T00:11:25.283Z,3.00
2023-01-18T00:13:55.299Z,3.17
2023-01-18T00:16:35.265Z,3.20
2023-01-18T00:19:02.468Z,3.30
2023-01-18T00:21:30.447Z,3.38
2023-01-18T00:23:57.986Z,3.10
2023-01-18T00:26:25.382Z,3.60
2023-01-18T00:28:53.018Z,3.70
2023-01-18T00:31:21.930Z,2.80
2023-01-18T00:33:50.463Z,2.78
2023-01-18T00:36:19.021Z,4.03
2023-01-18T00:38:51.949Z,3.30
2023-01-18T00:41:19.462Z,3.83
2023-01-18T00:43:46.668Z,3.38
2023-01-18T00:46:19.783Z,3.65
2023-01-18T00:48:46.922Z,3.50
2023-01-18T00:51:16.647Z,3.00
2023-01-18T00:53:49.447Z,4.00
2023-01-18T00:56:19.674Z,3.78
2023-01-18T00:58:46.855Z,4.82
2023-01-18T01:01:14.716Z,4.43
2023-01-18T01:04:00.762Z,4.75
2023-01-18T01:06:46.826Z,3.75
2023-01-18T01:09:20.592Z,3.63
2023-01-18T01:12:07.029Z,3.90
2023-01-18T01:14:58.912Z,4.20
2023-01-18T01:17:44.508Z,4.68
2023-01-18T01:20:30.366Z,4.22
2023-01-18T01:23:15.663Z,4.97
2023-01-18T01:26:01.896Z,5.40
2023-01-18T01:28:28.786Z,5.15
2023-01-18T01:31:01.530Z,4.53
2023-01-18T01:33:29.951Z,5.38
2023-01-18T01:36:02.489Z,5.28
2023-01-18T01:38:31.011Z,4.93
2023-01-18T01:40:59.683Z,4.63
2023-01-18T01:43:48.800Z,5.07
2023-01-18T01:46:43.760Z,5.00
2023-01-18T01:49:24.147Z,5.18
2023-01-18T01:51:53.698Z,4.32
2023-01-18T01:54:33.170Z,5.15
2023-01-18T01:57:13.007Z,4.88
2023-01-18T01:59:43.610Z,5.80
2023-01-18T02:02:10.988Z,5.50
2023-01-18T02:04:38.553Z,5.43
2023-01-18T02:07:05.561Z,5.20
2023-01-18T02:09:37.809Z,5.63
2023-01-18T02:12:05.118Z,5.18
2023-01-18T02:14:36.505Z,6.03
2023-01-18T02:17:33.480Z,5.93
2023-01-18T02:20:26.314Z,4.97
2023-01-18T02:23:16.438Z,4.97
2023-01-18T02:26:31.757Z,5.30
2023-01-18T02:29:09.543Z,4.97
2023-01-18T02:31:51.551Z,4.95
2023-01-18T02:34:31.089Z,5.57
2023-01-18T02:37:14.910Z,4.97
2023-01-18T02:39:58.534Z,5.18
2023-01-18T02:42:48.256Z,4.65
2023-01-18T02:45:45.086Z,5.32
2023-01-18T02:48:13.456Z,5.35
2023-01-18T02:50:40.615Z,6.03
2023-01-18T02:53:11.066Z,5.53
2023-01-18T02:55:59.110Z,5.18
2023-01-18T02:58:42.064Z,5.95
2023-01-18T03:01:27.412Z,5.57
2023-01-18T03:04:00.297Z,5.68
2023-01-18T03:06:30.125Z,5.57
2023-01-18T03:09:00.128Z,5.97
2023-01-18T03:11:40.248Z,5.78
2023-01-18T03:14:40.021Z,5.75
2023-01-18T03:17:11.803Z,5.63
2023-01-18T03:20:06.960Z,5.38
2023-01-18T03:25:45.533Z,5.15
2023-01-18T03:28:49.945Z,4.88
2023-01-18T03:48:36.147Z,5.22
2023-01-18T03:57:07.179Z,5.43
2023-01-18T03:59:38.151Z,5.90
2023-01-18T04:02:06.799Z,6.10
2023-01-18T04:04:33.780Z,6.40
2023-01-18T04:07:03.404Z,6.03
2023-01-18T04:09:33.193Z,7.18
2023-01-18T04:12:00.422Z,6.13
2023-01-18T04:14:32.591Z,6.15
2023-01-18T04:17:00.637Z,6.63
2023-01-18T04:19:28.854Z,6.38
2023-01-18T04:21:56.194Z,6.10
2023-01-18T04:27:04.907Z,5.75
2023-01-18T04:29:33.014Z,6.32
2023-01-18T04:32:00.526Z,5.57
2023-01-18T04:34:27.756Z,5.55
2023-01-18T04:36:57.246Z,5.93
2023-01-18T04:39:24.528Z,5.18
2023-01-18T04:41:51.638Z,5.15
2023-01-18T04:44:19.022Z,5.47
2023-01-18T04:46:46.048Z,5.50
2023-01-18T04:49:15.916Z,4.75
2023-01-18T04:51:44.962Z,5.07
2023-01-18T04:54:13.850Z,5.10
2023-01-18T04:56:42.016Z,5.53
2023-01-18T04:59:13.969Z,5.45
2023-01-18T05:01:42.867Z,5.15
2023-01-18T05:04:12.582Z,4.90
2023-01-18T05:06:42.620Z,4.88
2023-01-18T05:09:12.596Z,5.10
2023-01-18T05:11:39.653Z,4.70
2023-01-18T05:14:06.609Z,5.07
2023-01-18T05:16:33.945Z,5.38
2023-01-18T05:19:01.176Z,4.57
2023-01-18T05:21:29.071Z,4.65
2023-01-18T05:24:01.355Z,5.43
2023-01-18T05:26:28.401Z,5.38
2023-01-18T05:29:01.385Z,5.93
2023-01-18T05:31:28.744Z,6.43
2023-01-18T05:33:57.817Z,5.78
2023-01-18T05:36:24.865Z,6.07
2023-01-18T05:38:51.797Z,5.95
2023-01-18T05:41:19.550Z,5.70
2023-01-18T05:43:46.490Z,5.95
2023-01-18T05:46:16.273Z,5.95
2023-01-18T05:48:48.522Z,5.30
2023-01-18T05:51:15.779Z,6.35
2023-01-18T05:53:45.799Z,5.25
2023-01-18T05:56:12.860Z,6.00
2023-01-18T05:58:42.393Z,4.57
2023-01-18T06:01:09.575Z,4.88
2023-01-18T06:03:37.288Z,4.72
2023-01-18T06:06:04.298Z,4.95
2023-01-18T06:08:31.408Z,4.30
2023-01-18T06:10:59.937Z,4.60
2023-01-18T06:13:28.613Z,3.45
2023-01-18T06:15:59.104Z,3.28
2023-01-18T06:18:27.780Z,4.03
2023-01-18T06:20:55.914Z,3.80
2023-01-18T06:23:25.919Z,3.38
2023-01-18T06:25:55.598Z,3.85
2023-01-18T06:28:23.004Z,3.40
2023-01-18T06:30:53.199Z,3.83
2023-01-18T06:33:20.443Z,3.67
2023-01-18T06:35:47.822Z,3.30
2023-01-18T06:38:15.040Z,3.78
2023-01-18T06:40:42.063Z,3.55
2023-01-18T06:43:10.420Z,3.63
2023-01-18T06:45:37.322Z,4.28
2023-01-18T06:48:04.581Z,4.18
2023-01-18T06:50:31.536Z,3.92
2023-01-18T06:52:58.730Z,3.70
2023-01-18T06:55:29.004Z,3.83
2023-01-18T06:57:57.205Z,5.07
2023-01-18T07:00:24.594Z,4.30
2023-01-18T07:02:53.313Z,4.20
2023-01-18T07:05:22.407Z,3.40
2023-01-18T07:07:49.674Z,3.50
2023-01-18T07:10:16.985Z,3.65
2023-01-18T07:12:51.489Z,3.25
2023-01-18T07:15:22.740Z,3.63
2023-01-18T07:17:50.745Z,3.97
2023-01-18T07:20:18.289Z,3.05
2023-01-18T07:22:45.328Z,3.42
2023-01-18T07:25:13.810Z,2.92
2023-01-18T07:27:43.514Z,2.75
2023-01-18T07:30:14.592Z,2.97
2023-01-18T07:32:48.816Z,2.83
2023-01-18T07:35:20.365Z,2.60
2023-01-18T07:37:52.470Z,3.10
2023-01-18T07:40:27.071Z,3.08
2023-01-18T07:42:57.582Z,2.65
2023-01-18T07:45:24.874Z,3.25
2023-01-18T07:47:54.652Z,2.88
2023-01-18T07:50:27.406Z,2.95
2023-01-18T07:52:54.159Z,3.20
2023-01-18T07:55:22.045Z,2.55
2023-01-18T07:57:49.266Z,3.25
2023-01-18T08:00:20.406Z,3.05
2023-01-18T08:02:53.752Z,2.20
2023-01-18T08:05:24.150Z,2.28
2023-01-18T08:07:52.252Z,4.35
2023-01-18T08:10:19.957Z,3.00
2023-01-18T08:12:47.010Z,2.92
2023-01-18T08:15:14.000Z,2.80
2023-01-18T08:17:46.082Z,2.53
2023-01-18T08:20:19.176Z,2.42
2023-01-18T08:22:46.396Z,2.40
2023-01-18T08:25:13.295Z,2.28
2023-01-18T08:27:40.562Z,2.63
2023-01-18T08:30:08.319Z,2.10
2023-01-18T08:32:35.415Z,2.08
2023-01-18T08:35:02.276Z,1.85
2023-01-18T08:37:33.502Z,2.42
2023-01-18T08:40:07.096Z,1.83
2023-01-18T08:42:39.224Z,2.15
2023-01-18T08:45:07.295Z,2.13
2023-01-18T08:47:34.477Z,2.47
2023-01-18T08:50:03.957Z,2.38
2023-01-18T08:52:31.271Z,2.20
2023-01-18T08:54:58.089Z,2.08
2023-01-18T08:57:25.230Z,3.00
2023-01-18T08:59:52.287Z,2.55
2023-01-18T09:02:22.750Z,2.42
2023-01-18T09:04:50.475Z,1.92
2023-01-18T09:07:28.086Z,2.78
2023-01-18T09:10:01.021Z,2.35
2023-01-18T09:12:28.312Z,2.63
2023-01-18T09:14:55.834Z,2.90
2023-01-18T09:17:25.820Z,3.00
2023-01-18T09:19:55.093Z,2.90
2023-01-18T09:22:22.427Z,2.90
2023-01-18T09:24:52.370Z,2.33
2023-01-18T09:27:19.389Z,2.60
2023-01-18T09:29:52.652Z,2.35
2023-01-18T09:32:20.287Z,2.65
2023-01-18T09:34:51.006Z,3.05
2023-01-18T09:37:19.277Z,2.40
2023-01-18T09:39:51.925Z,2.90
2023-01-18T09:42:26.142Z,3.28
2023-01-18T09:44:59.126Z,2.70
2023-01-18T09:47:29.382Z,2.65
2023-01-18T09:49:56.984Z,2.63
2023-01-18T09:52:41.695Z,3.40
2023-01-18T09:55:20.716Z,2.78
2023-01-18T09:58:25.044Z,3.47
2023-01-18T10:00:52.294Z,4.63
2023-01-18T10:03:51.513Z,3.03
2023-01-18T10:06:26.126Z,3.28
2023-01-18T10:09:04.995Z,3.00
2023-01-18T10:11:55.580Z,3.17
2023-01-18T10:14:42.690Z,3.08
2023-01-18T10:17:14.434Z,3.60
2023-01-18T10:19:41.872Z,2.65
2023-01-18T10:22:42.875Z,2.83
2023-01-18T10:25:24.712Z,2.83
2023-01-18T10:27:55.242Z,2.80
2023-01-18T10:31:05.322Z,2.72
2023-01-18T10:33:35.738Z,2.95
2023-01-18T10:36:11.848Z,2.85
2023-01-18T10:38:41.126Z,3.47
2023-01-18T10:41:19.910Z,2.53
2023-01-18T10:43:47.263Z,2.50
2023-01-18T10:46:23.825Z,2.75
2023-01-18T10:48:53.225Z,2.17
2023-01-18T10:51:35.877Z,2.33
2023-01-18T10:54:23.692Z,2.97
2023-01-18T10:57:02.297Z,2.53
2023-01-18T10:59:38.033Z,2.83
2023-01-18T11:02:05.231Z,2.83
2023-01-18T11:04:33.090Z,2.75
2023-01-18T11:07:04.671Z,2.60
2023-01-18T11:09:47.134Z,2.85
2023-01-18T11:12:43.053Z,3.17
2023-01-18T11:15:16.284Z,2.88
2023-01-18T11:17:44.054Z,3.55
2023-01-18T11:20:26.680Z,3.22
2023-01-18T11:23:03.472Z,3.22
2023-01-18T11:26:01.044Z,3.13
2023-01-18T11:28:34.108Z,3.50
2023-01-18T11:31:07.092Z,3.05
2023-01-18T11:33:34.650Z,2.92
2023-01-18T11:36:02.695Z,3.35
2023-01-18T11:38:33.059Z,3.55
2023-01-18T11:41:13.852Z,3.08
2023-01-18T11:44:02.749Z,3.40
2023-01-18T11:46:52.722Z,3.92
2023-01-18T11:49:42.525Z,3.40
2023-01-18T11:52:31.330Z,3.17
2023-01-18T11:55:11.109Z,3.80
2023-01-18T11:57:40.933Z,3.28
2023-01-18T12:00:33.906Z,3.28
2023-01-18T12:03:53.673Z,3.17
2023-01-18T12:13:05.210Z,3.67
2023-01-18T12:15:54.112Z,3.42
2023-01-18T12:18:35.771Z,3.58
2023-01-18T12:21:34.928Z,3.42
2023-01-18T12:24:07.609Z,3.20
2023-01-18T12:26:37.313Z,3.30
2023-01-18T12:29:30.569Z,3.28
2023-01-18T12:32:02.490Z,3.13
2023-01-18T12:34:38.103Z,3.45
2023-01-18T12:37:20.480Z,3.22
2023-01-18T12:39:53.922Z,3.53
2023-01-18T12:42:51.262Z,3.72
2023-01-18T12:45:21.765Z,3.83
2023-01-18T12:48:16.976Z,3.60
2023-01-18T12:50:46.269Z,3.90
2023-01-18T12:53:29.295Z,4.05
2023-01-18T12:55:56.955Z,4.47
2023-01-18T12:58:26.473Z,4.25
2023-01-18T13:01:03.107Z,4.85
2023-01-18T13:03:35.298Z,4.50
2023-01-18T13:06:05.732Z,3.90
2023-01-18T13:08:35.003Z,4.38
2023-01-18T13:11:15.013Z,4.55
2023-01-18T13:13:48.205Z,4.75
2023-01-18T13:16:46.576Z,5.03
2023-01-18T13:19:26.118Z,4.70
2023-01-18T13:21:56.036Z,4.43
2023-01-18T13:24:36.587Z,3.72
2023-01-18T13:27:15.778Z,3.80
2023-01-18T13:29:44.162Z,4.35
2023-01-18T13:32:32.324Z,4.13
2023-01-18T13:35:19.966Z,4.50
2023-01-18T13:37:56.440Z,3.90
2023-01-18T13:40:36.961Z,4.05
2023-01-18T13:43:05.956Z,3.35
2023-01-18T13:45:33.047Z,4.43
2023-01-18T13:48:45.546Z,4.60
2023-01-18T13:51:39.999Z,3.88
2023-01-18T13:54:18.284Z,4.00
2023-01-18T13:57:17.319Z,4.55
2023-01-18T13:59:53.832Z,4.35
2023-01-18T14:02:42.693Z,4.60
2023-01-18T14:05:45.017Z,3.92
2023-01-18T14:08:25.422Z,4.25
2023-01-18T14:10:55.302Z,4.47
2023-01-18T14:13:48.418Z,3.60
2023-01-18T14:16:22.053Z,3.47
2023-01-18T14:19:00.711Z,4.10
2023-01-18T14:21:58.517Z,4.15
2023-01-18T14:24:37.475Z,4.05
2023-01-18T14:27:08.012Z,4.03
2023-01-18T14:29:47.199Z,4.18
2023-01-18T14:32:39.084Z,4.28
2023-01-18T14:35:25.967Z,4.13
2023-01-18T14:38:16.929Z,4.20
2023-01-18T14:40:48.741Z,4.30
2023-01-18T14:43:27.367Z,4.28
2023-01-18T14:46:05.335Z,4.72
2023-01-18T14:48:42.381Z,5.20
2023-01-18T14:51:12.109Z,3.78
2023-01-18T14:53:47.850Z,4.72
2023-01-18T14:56:15.345Z,4.10
2023-01-18T14:58:54.658Z,4.00
2023-01-18T15:01:29.200Z,4.05
2023-01-18T15:03:59.100Z,3.97
2023-01-18T15:06:44.237Z,4.40
2023-01-18T15:09:14.138Z,4.22
2023-01-18T15:11:42.219Z,4.55
2023-01-18T15:14:42.252Z,3.75
2023-01-18T15:17:21.662Z,4.05
2023-01-18T15:20:00.280Z,4.32
2023-01-18T15:22:32.751Z,3.92
2023-01-18T15:25:02.111Z,3.90
2023-01-18T15:27:32.723Z,4.30
2023-01-18T15:30:02.714Z,3.95
2023-01-18T15:32:32.480Z,3.60
2023-01-18T15:35:03.305Z,3.83
2023-01-18T15:37:37.970Z,3.28
2023-01-18T15:40:23.500Z,3.55
2023-01-18T15:43:07.397Z,3.85
2023-01-18T15:45:38.968Z,3.80
2023-01-18T15:48:12.275Z,3.60
2023-01-18T15:50:51.797Z,3.75
2023-01-18T15:53:33.873Z,4.05
2023-01-18T15:56:09.777Z,3.97
2023-01-18T15:58:42.776Z,4.03
2023-01-18T16:01:21.401Z,4.80
2023-01-18T16:03:48.161Z,4.03
2023-01-18T16:06:17.223Z,3.42
2023-01-18T16:08:58.360Z,3.72
2023-01-18T16:11:47.833Z,3.92
2023-01-18T16:14:48.576Z,5.05
2023-01-18T16:17:23.189Z,4.13
2023-01-18T16:19:58.070Z,4.82
2023-01-18T16:22:35.652Z,5.07
2023-01-18T16:25:18.971Z,4.30
2023-01-18T16:27:54.166Z,4.78
2023-01-18T16:30:36.608Z,4.38
2023-01-18T16:33:18.558Z,4.68
2023-01-18T16:35:48.211Z,4.68
2023-01-18T16:38:17.069Z,4.78
2023-01-18T16:40:45.827Z,5.28
2023-01-18T16:43:23.588Z,4.57
2023-01-18T16:45:53.021Z,5.45
2023-01-18T16:48:27.979Z,5.25
2023-01-18T16:50:56.549Z,5.65
2023-01-18T16:53:23.808Z,5.10
2023-01-18T16:55:53.997Z,5.47
2023-01-18T16:58:21.826Z,5.68
2023-01-18T17:00:50.670Z,4.80
2023-01-18T17:03:17.650Z,5.22
2023-01-18T17:05:44.896Z,5.28
2023-01-18T17:08:18.500Z,5.13
2023-01-18T17:10:48.223Z,5.07
2023-01-18T17:13:15.451Z,8.15
2023-01-18T17:15:46.840Z,6.00
2023-01-18T17:18:26.471Z,4.95
2023-01-18T17:20:54.591Z,5.72
2023-01-18T17:23:28.533Z,6.10
2023-01-18T17:25:55.618Z,5.43
2023-01-18T17:28:22.348Z,5.88
2023-01-18T17:30:50.579Z,5.57
2023-01-18T17:33:23.035Z,6.82
2023-01-18T17:35:50.815Z,6.65
2023-01-18T17:38:24.434Z,6.72
2023-01-18T17:40:52.225Z,6.50
2023-01-18T17:43:32.063Z,6.10
2023-01-18T17:46:03.527Z,6.82
2023-01-18T17:48:30.550Z,6.53
2023-01-18T17:50:57.547Z,5.90
2023-01-18T17:53:24.279Z,6.47
2023-01-18T17:55:51.245Z,6.72
2023-01-18T17:58:20.855Z,7.25
2023-01-18T18:00:48.191Z,6.93
2023-01-18T18:03:18.092Z,6.82
2023-01-18T18:05:47.518Z,7.45
2023-01-18T18:08:14.776Z,7.68
2023-01-18T18:10:43.972Z,7.35
2023-01-18T18:13:10.620Z,6.90
2023-01-18T18:15:37.682Z,7.53
2023-01-18T18:18:07.410Z,7.53
2023-01-18T18:20:38.561Z,8.13
2023-01-18T18:23:05.631Z,7.15
2023-01-18T18:25:33.762Z,6.82
2023-01-18T18:28:00.658Z,8.30
2023-01-18T18:30:27.559Z,7.40
2023-01-18T18:32:54.654Z,9.00
2023-01-18T18:35:26.283Z,7.53
2023-01-18T18:37:54.550Z,7.22
2023-01-18T18:40:22.278Z,6.30
2023-01-18T18:43:01.139Z,6.88
2023-01-18T18:45:31.058Z,7.57
2023-01-18T18:47:57.939Z,6.13
2023-01-18T18:50:24.785Z,6.63
2023-01-18T18:52:52.189Z,7.38
2023-01-18T18:55:20.117Z,6.93
2023-01-18T18:57:47.087Z,6.70
2023-01-18T19:00:14.573Z,7.15
2023-01-18T19:02:41.750Z,8.05
2023-01-18T19:05:08.802Z,6.95
2023-01-18T19:07:36.007Z,6.93
2023-01-18T19:10:07.318Z,6.63
2023-01-18T19:12:34.265Z,6.57
2023-01-18T19:15:01.366Z,7.28
2023-01-18T19:17:31.160Z,6.38
2023-01-18T19:19:58.623Z,7.50
2023-01-18T19:22:25.613Z,6.70
2023-01-18T19:24:52.459Z,7.10
2023-01-18T19:27:19.470Z,7.15
2023-01-18T19:29:46.396Z,6.47
2023-01-18T19:32:13.301Z,6.80
2023-01-18T19:34:39.983Z,6.50
2023-01-18T19:37:07.135Z,7.68
2023-01-18T19:39:35.139Z,7.85
2023-01-18T19:42:02.498Z,7.18
2023-01-18T19:44:29.846Z,6.97
2023-01-18T19:46:57.339Z,7.05
2023-01-18T19:49:28.014Z,8.63
2023-01-18T19:51:56.017Z,7.03
2023-01-18T19:54:23.015Z,6.90
2023-01-18T19:56:50.188Z,7.35
2023-01-18T19:59:17.241Z,7.07
2023-01-18T20:01:44.911Z,7.30
2023-01-18T20:04:13.602Z,6.47
2023-01-18T20:06:43.795Z,6.45
2023-01-18T20:09:19.900Z,7.53
2023-01-18T20:11:48.645Z,7.35
2023-01-18T20:14:15.822Z,7.30
2023-01-18T20:16:44.922Z,7.80
2023-01-18T20:19:13.926Z,7.00
2023-01-18T20:21:40.838Z,7.00
2023-01-18T20:24:08.078Z,7.43
2023-01-18T20:26:37.726Z,7.38
2023-01-18T20:29:08.696Z,6.97
2023-01-18T20:31:37.074Z,8.20
2023-01-18T20:34:05.234Z,7.85
2023-01-18T20:36:34.998Z,6.72
2023-01-18T20:39:02.686Z,7.75
2023-01-18T20:41:29.426Z,7.30
2023-01-18T20:43:58.716Z,7.78
2023-01-18T20:46:25.743Z,7.65
2023-01-18T20:48:53.110Z,8.27
2023-01-18T20:51:20.085Z,8.50
2023-01-18T20:53:46.881Z,7.60
2023-01-18T20:56:28.336Z,8.18
2023-01-18T20:58:56.799Z,7.75
2023-01-18T21:01:23.709Z,7.47
2023-01-18T21:03:55.592Z,7.93
2023-01-18T21:06:27.809Z,8.50
2023-01-18T21:08:55.682Z,8.63
2023-01-18T21:11:26.968Z,8.55
2023-01-18T21:13:59.248Z,8.75
2023-01-18T21:16:27.837Z,7.80
2023-01-18T21:18:56.568Z,8.27
2023-01-18T21:21:24.136Z,7.70
2023-01-18T21:23:50.947Z,9.05
2023-01-18T21:26:20.293Z,7.45
2023-01-18T21:28:47.248Z,7.57
2023-01-18T21:31:15.411Z,7.25
2023-01-18T21:33:48.647Z,7.85
2023-01-18T21:36:20.466Z,8.43
2023-01-18T21:38:47.640Z,7.93
2023-01-18T21:41:33.211Z,8.02
2023-01-18T21:44:18.493Z,7.75
2023-01-18T21:46:51.310Z,8.90
2023-01-18T21:50:04.151Z,7.47
2023-01-18T21:52:43.725Z,7.18
2023-01-18T21:55:10.811Z,7.35
2023-01-18T21:57:38.790Z,7.00
2023-01-18T22:00:06.797Z,7.15
2023-01-18T22:02:33.905Z,7.78
2023-01-18T22:05:01.027Z,7.43
2023-01-18T22:07:30.356Z,8.15
2023-01-18T22:10:06.489Z,8.02
2023-01-18T22:12:37.314Z,8.27
2023-01-18T22:15:05.000Z,8.05
2023-01-18T22:17:32.028Z,8.02
2023-01-18T22:19:59.316Z,8.18
2023-01-18T22:22:26.314Z,7.90
2023-01-18T22:24:53.083Z,7.45
2023-01-18T22:27:19.846Z,7.60
2023-01-18T22:29:46.631Z,7.05
2023-01-18T22:32:13.302Z,7.82
2023-01-18T22:34:40.265Z,7.10
2023-01-18T22:37:07.125Z,7.78
2023-01-18T22:39:33.899Z,6.90
2023-01-18T22:42:00.945Z,7.03
2023-01-18T22:44:27.764Z,7.65
2023-01-18T22:46:54.528Z,7.00
2023-01-18T22:49:22.127Z,6.40
2023-01-18T22:51:48.908Z,7.45
2023-01-18T22:54:16.083Z,6.95
2023-01-18T22:56:45.641Z,6.82
2023-01-18T22:59:13.504Z,6.93
2023-01-18T23:01:43.438Z,6.53
2023-01-18T23:04:13.744Z,6.80
2023-01-18T23:06:49.569Z,6.85
2023-01-18T23:09:17.731Z,6.60
2023-01-18T23:11:45.429Z,6.90
2023-01-18T23:14:31.273Z,6.95
2023-01-18T23:17:16.779Z,6.22
2023-01-18T23:19:43.462Z,7.65
2023-01-18T23:22:11.457Z,6.82
2023-01-18T23:24:39.135Z,6.78
2023-01-18T23:27:10.811Z,6.10
2023-01-18T23:29:39.337Z,6.53
2023-01-18T23:32:06.683Z,6.13
2023-01-18T23:34:33.621Z,5.90
2023-01-18T23:37:00.416Z,6.07
2023-01-18T23:39:45.622Z,5.63
2023-01-18T23:42:31.070Z,6.22
2023-01-18T23:45:16.754Z,5.50
2023-01-18T23:48:02.653Z,5.90
2023-01-18T23:50:48.211Z,5.75
2023-01-18T23:53:33.619Z,5.32
2023-01-18T23:56:00.520Z,4.80
2023-01-18T23:58:30.018Z,5.35
